createdAt,value
2018-04-27T00:00:15.040Z,11.14
2018-04-27T00:01:15.065Z,11.12
2018-04-27T00:02:15.054Z,11.11
2018-04-27T00:03:15.077Z,11.1
2018-04-27T00:04:15.062Z,11.08
2018-04-27T00:05:15.057Z,11.11
2018-04-27T00:06:15.053Z,11.07
2018-04-27T00:07:15.051Z,11.04
2018-04-27T00:08:15.065Z,10.97
2018-04-27T00:09:15.101Z,10.93
2018-04-27T00:10:15.044Z,10.92
2018-04-27T00:11:15.056Z,10.87
2018-04-27T00:12:15.109Z,10.9
2018-04-27T00:13:15.045Z,10.92
2018-04-27T00:14:15.087Z,10.89
2018-04-27T00:15:15.044Z,10.89
2018-04-27T00:16:15.048Z,10.89
2018-04-27T00:17:15.084Z,10.86
2018-04-27T00:18:15.053Z,10.86
2018-04-27T00:19:15.227Z,10.89
2018-04-27T00:20:15.088Z,10.86
2018-04-27T00:21:15.086Z,10.86
2018-04-27T00:22:15.068Z,10.86
2018-04-27T00:23:15.076Z,10.89
2018-04-27T00:24:15.080Z,10.9
2018-04-27T00:25:15.065Z,10.93
2018-04-27T00:26:15.067Z,10.9
2018-04-27T00:27:15.035Z,10.93
2018-04-27T00:28:15.070Z,10.92
2018-04-27T00:29:15.051Z,10.9
2018-04-27T00:30:15.059Z,10.92
2018-04-27T00:31:15.055Z,10.92
2018-04-27T00:32:15.054Z,10.92
2018-04-27T00:33:15.214Z,10.93
2018-04-27T00:34:15.270Z,10.9
2018-04-27T00:35:15.058Z,10.87
2018-04-27T00:36:15.070Z,10.82
2018-04-27T00:37:15.061Z,10.82
2018-04-27T00:38:15.051Z,10.79
2018-04-27T00:39:15.064Z,10.78
2018-04-27T00:40:15.069Z,10.76
2018-04-27T00:41:15.062Z,10.72
2018-04-27T00:42:15.093Z,10.69
2018-04-27T00:43:15.316Z,10.65
2018-04-27T00:44:15.074Z,10.61
2018-04-27T00:45:15.055Z,10.56
2018-04-27T00:46:15.056Z,10.52
2018-04-27T00:47:15.075Z,10.56
2018-04-27T00:48:15.079Z,10.51
2018-04-27T00:49:15.078Z,10.51
2018-04-27T00:50:15.094Z,10.52
2018-04-27T00:51:15.098Z,10.51
2018-04-27T00:52:15.074Z,10.49
2018-04-27T00:53:15.098Z,10.47
2018-04-27T00:54:15.064Z,10.47
2018-04-27T00:55:15.066Z,10.45
2018-04-27T00:56:15.079Z,10.44
2018-04-27T00:57:15.096Z,10.47
2018-04-27T00:58:15.105Z,10.42
2018-04-27T00:59:15.075Z,10.44
2018-04-27T01:00:15.058Z,10.45
2018-04-27T01:01:15.074Z,10.48
2018-04-27T01:02:15.066Z,10.48
2018-04-27T01:03:15.106Z,10.49
2018-04-27T01:04:15.080Z,10.49
2018-04-27T01:05:15.079Z,10.51
2018-04-27T01:06:15.065Z,10.49
2018-04-27T01:07:15.074Z,10.47
2018-04-27T01:08:15.106Z,10.45
2018-04-27T01:09:15.092Z,10.42
2018-04-27T01:10:15.101Z,10.42
2018-04-27T01:11:15.106Z,10.44
2018-04-27T01:12:15.112Z,10.44
2018-04-27T01:13:15.141Z,10.42
2018-04-27T01:14:15.086Z,10.41
2018-04-27T01:15:15.078Z,10.38
2018-04-27T01:16:15.099Z,10.37
2018-04-27T01:17:15.088Z,10.34
2018-04-27T01:18:15.070Z,10.31
2018-04-27T01:19:15.075Z,10.28
2018-04-27T01:20:15.077Z,10.31
2018-04-27T01:21:15.111Z,10.3
2018-04-27T01:22:15.100Z,10.31
2018-04-27T01:23:15.097Z,10.34
2018-04-27T01:24:15.087Z,10.31
2018-04-27T01:25:15.090Z,10.32
2018-04-27T01:26:15.087Z,10.28
2018-04-27T01:27:15.098Z,10.3
2018-04-27T01:28:15.383Z,10.28
2018-04-27T01:29:15.098Z,10.28
2018-04-27T01:30:15.081Z,10.28
2018-04-27T01:31:15.097Z,10.27
2018-04-27T01:32:15.100Z,10.27
2018-04-27T01:33:15.128Z,10.24
2018-04-27T01:34:15.085Z,10.25
2018-04-27T01:35:15.116Z,10.24
2018-04-27T01:36:15.096Z,10.24
2018-04-27T01:37:15.101Z,10.23
2018-04-27T01:38:15.089Z,10.24
2018-04-27T01:39:15.414Z,10.23
2018-04-27T01:40:15.086Z,10.2
2018-04-27T01:41:15.092Z,10.2
2018-04-27T01:42:15.125Z,10.2
2018-04-27T01:43:15.090Z,10.16
2018-04-27T01:44:15.131Z,10.16
2018-04-27T01:45:15.101Z,10.17
2018-04-27T01:46:15.090Z,10.16
2018-04-27T01:47:15.090Z,10.13
2018-04-27T01:48:15.101Z,10.17
2018-04-27T01:49:15.118Z,10.16
2018-04-27T01:50:15.084Z,10.16
2018-04-27T01:51:15.089Z,10.14
2018-04-27T01:52:15.090Z,10.13
2018-04-27T01:53:15.096Z,10.13
2018-04-27T01:54:15.465Z,10.11
2018-04-27T01:55:15.217Z,10.11
2018-04-27T01:56:15.107Z,10.1
2018-04-27T01:57:15.096Z,10.09
2018-04-27T01:58:15.089Z,10.06
2018-04-27T01:59:15.116Z,10.03
2018-04-27T02:00:15.104Z,9.97
2018-04-27T02:01:15.092Z,9.93
2018-04-27T02:02:15.097Z,9.86
2018-04-27T02:03:15.110Z,9.85
2018-04-27T02:04:15.361Z,9.81
2018-04-27T02:05:15.098Z,9.83
2018-04-27T02:06:15.121Z,9.79
2018-04-27T02:07:15.105Z,9.78
2018-04-27T02:08:15.098Z,9.76
2018-04-27T02:09:15.125Z,9.76
2018-04-27T02:10:15.111Z,9.78
2018-04-27T02:11:15.140Z,9.78
2018-04-27T02:12:15.114Z,9.79
2018-04-27T02:13:15.120Z,9.76
2018-04-27T02:14:15.122Z,9.75
2018-04-27T02:15:15.095Z,9.72
2018-04-27T02:16:15.100Z,9.76
2018-04-27T02:17:15.130Z,9.66
2018-04-27T02:18:15.111Z,9.59
2018-04-27T02:19:15.130Z,9.61
2018-04-27T02:20:15.092Z,9.61
2018-04-27T02:21:15.112Z,9.61
2018-04-27T02:22:15.099Z,9.63
2018-04-27T02:23:15.116Z,9.63
2018-04-27T02:24:15.139Z,9.63
2018-04-27T02:25:15.116Z,9.58
2018-04-27T02:26:15.101Z,9.63
2018-04-27T02:27:15.107Z,9.62
2018-04-27T02:28:15.113Z,9.58
2018-04-27T02:29:15.143Z,9.58
2018-04-27T02:30:15.127Z,9.59
2018-04-27T02:31:15.112Z,9.58
2018-04-27T02:32:15.096Z,9.59
2018-04-27T02:33:15.102Z,9.61
2018-04-27T02:34:15.108Z,9.61
2018-04-27T02:35:15.151Z,9.63
2018-04-27T02:36:15.104Z,9.59
2018-04-27T02:37:15.116Z,9.59
2018-04-27T02:38:15.114Z,9.59
2018-04-27T02:39:15.487Z,9.58
2018-04-27T02:40:15.122Z,9.61
2018-04-27T02:41:15.144Z,9.57
2018-04-27T02:42:15.169Z,9.55
2018-04-27T02:43:15.257Z,9.52
2018-04-27T02:44:15.126Z,9.42
2018-04-27T02:45:15.127Z,9.47
2018-04-27T02:46:15.133Z,9.45
2018-04-27T02:47:15.112Z,9.49
2018-04-27T02:48:15.148Z,9.42
2018-04-27T02:49:15.126Z,9.45
2018-04-27T02:50:15.115Z,9.42
2018-04-27T02:51:15.117Z,9.42
2018-04-27T02:52:15.109Z,9.42
2018-04-27T02:53:15.142Z,9.45
2018-04-27T02:54:15.147Z,9.45
2018-04-27T02:55:15.110Z,9.48
2018-04-27T02:56:15.133Z,9.47
2018-04-27T02:57:15.146Z,9.48
2018-04-27T02:58:15.138Z,9.44
2018-04-27T02:59:15.139Z,9.4
2018-04-27T03:00:15.126Z,9.38
2018-04-27T03:01:15.112Z,9.37
2018-04-27T03:02:15.139Z,9.34
2018-04-27T03:03:15.127Z,9.3
2018-04-27T03:04:15.156Z,9.31
2018-04-27T03:05:15.155Z,9.3
2018-04-27T03:06:15.116Z,9.3
2018-04-27T03:07:15.132Z,9.29
2018-04-27T03:08:15.113Z,9.29
2018-04-27T03:09:15.118Z,9.24
2018-04-27T03:10:15.114Z,9.23
2018-04-27T03:11:15.116Z,9.21
2018-04-27T03:12:15.170Z,9.17
2018-04-27T03:13:15.137Z,9.16
2018-04-27T03:14:15.301Z,9.16
2018-04-27T03:15:15.130Z,9.14
2018-04-27T03:16:15.150Z,9.13
2018-04-27T03:17:15.130Z,9.13
2018-04-27T03:18:15.125Z,9.1
2018-04-27T03:19:15.163Z,9.1
2018-04-27T03:20:15.124Z,9.14
2018-04-27T03:21:15.123Z,9.16
2018-04-27T03:22:15.134Z,9.17
2018-04-27T03:23:15.111Z,9.17
2018-04-27T03:24:15.302Z,9.14
2018-04-27T03:25:15.123Z,9.14
2018-04-27T03:26:15.148Z,9.2
2018-04-27T03:27:15.139Z,9.2
2018-04-27T03:28:15.148Z,9.23
2018-04-27T03:29:15.178Z,9.23
2018-04-27T03:30:15.133Z,9.24
2018-04-27T03:31:15.133Z,9.27
2018-04-27T03:32:15.155Z,9.21
2018-04-27T03:33:15.136Z,9.23
2018-04-27T03:34:15.354Z,9.26
2018-04-27T03:35:15.131Z,9.27
2018-04-27T03:36:15.158Z,9.27
2018-04-27T03:37:15.195Z,9.27
2018-04-27T03:38:15.158Z,9.29
2018-04-27T03:39:15.150Z,9.27
2018-04-27T03:40:15.129Z,9.27
2018-04-27T03:41:15.180Z,9.27
2018-04-27T03:42:15.137Z,9.29
2018-04-27T03:43:15.187Z,9.3
2018-04-27T03:44:15.137Z,9.3
2018-04-27T03:45:15.145Z,9.3
2018-04-27T03:46:15.195Z,9.31
2018-04-27T03:47:15.159Z,9.3
2018-04-27T03:48:15.181Z,9.35
2018-04-27T03:49:15.197Z,9.33
2018-04-27T03:50:15.149Z,9.3
2018-04-27T03:51:15.167Z,9.29
2018-04-27T03:52:15.137Z,9.27
2018-04-27T03:53:15.183Z,9.27
2018-04-27T03:54:15.461Z,9.24
2018-04-27T03:55:15.131Z,9.26
2018-04-27T03:56:15.129Z,9.24
2018-04-27T03:57:15.136Z,9.23
2018-04-27T03:58:15.136Z,9.21
2018-04-27T03:59:15.163Z,9.2
2018-04-27T04:00:15.219Z,9.19
2018-04-27T04:01:15.514Z,9.19
2018-04-27T04:02:15.145Z,9.19
2018-04-27T04:03:15.164Z,9.19
2018-04-27T04:04:15.182Z,9.19
2018-04-27T04:05:15.163Z,9.17
2018-04-27T04:06:15.158Z,9.19
2018-04-27T04:07:15.165Z,9.16
2018-04-27T04:08:15.148Z,9.16
2018-04-27T04:09:15.179Z,9.13
2018-04-27T04:10:15.467Z,9.11
2018-04-27T04:11:15.161Z,9.17
2018-04-27T04:12:15.159Z,9.14
2018-04-27T04:13:15.181Z,9.11
2018-04-27T04:14:15.166Z,9.13
2018-04-27T04:15:15.160Z,9.14
2018-04-27T04:16:15.185Z,9.11
2018-04-27T04:17:15.167Z,9.11
2018-04-27T04:18:15.148Z,9.1
2018-04-27T04:19:15.185Z,9.09
2018-04-27T04:20:15.192Z,9.11
2018-04-27T04:21:15.148Z,9.1
2018-04-27T04:22:15.252Z,9.1
2018-04-27T04:23:15.174Z,9.09
2018-04-27T04:24:15.157Z,9.1
2018-04-27T04:25:15.165Z,9.1
2018-04-27T04:26:15.169Z,9.1
2018-04-27T04:27:15.154Z,9.1
2018-04-27T04:28:15.222Z,9.1
2018-04-27T04:29:15.188Z,9.11
2018-04-27T04:30:15.152Z,9.11
2018-04-27T04:31:15.225Z,9.09
2018-04-27T04:32:15.455Z,9.11
2018-04-27T04:33:15.168Z,9.09
2018-04-27T04:34:15.166Z,9.03
2018-04-27T04:35:15.180Z,9.06
2018-04-27T04:36:15.189Z,9.06
2018-04-27T04:37:15.207Z,9.06
2018-04-27T04:38:15.319Z,9.07
2018-04-27T04:39:15.176Z,9.06
2018-04-27T04:40:15.176Z,9.04
2018-04-27T04:41:15.173Z,9.06
2018-04-27T04:42:15.189Z,9.07
2018-04-27T04:43:15.185Z,9.07
2018-04-27T04:44:15.154Z,9.06
2018-04-27T04:45:15.155Z,9.04
2018-04-27T04:46:15.166Z,9.03
2018-04-27T04:47:15.308Z,9.02
2018-04-27T04:48:15.169Z,8.99
2018-04-27T04:49:15.159Z,8.99
2018-04-27T04:50:15.179Z,8.96
2018-04-27T04:51:15.166Z,8.99
2018-04-27T04:52:15.172Z,8.98
2018-04-27T04:53:15.182Z,8.93
2018-04-27T04:54:15.161Z,8.93
2018-04-27T04:55:15.175Z,8.88
2018-04-27T04:56:15.162Z,8.92
2018-04-27T04:57:15.177Z,8.88
2018-04-27T04:58:15.163Z,8.86
2018-04-27T04:59:15.183Z,8.83
2018-04-27T05:00:15.159Z,8.83
2018-04-27T05:01:15.165Z,8.83
2018-04-27T05:02:15.176Z,8.83
2018-04-27T05:03:15.172Z,8.8
2018-04-27T05:04:15.158Z,8.79
2018-04-27T05:05:15.166Z,8.74
2018-04-27T05:06:15.156Z,8.78
2018-04-27T05:07:15.172Z,8.78
2018-04-27T05:08:15.364Z,8.79
2018-04-27T05:09:15.152Z,8.79
2018-04-27T05:10:15.157Z,8.75
2018-04-27T05:11:15.171Z,8.8
2018-04-27T05:12:15.189Z,8.82
2018-04-27T05:13:15.203Z,8.85
2018-04-27T05:14:15.179Z,8.88
2018-04-27T05:15:15.159Z,8.83
2018-04-27T05:16:15.174Z,8.83
2018-04-27T05:17:15.177Z,8.86
2018-04-27T05:18:15.174Z,8.89
2018-04-27T05:19:15.194Z,8.95
2018-04-27T05:20:15.239Z,8.93
2018-04-27T05:21:15.212Z,8.95
2018-04-27T05:22:15.179Z,8.96
2018-04-27T05:23:15.181Z,8.98
2018-04-27T05:24:15.523Z,9.02
2018-04-27T05:25:15.194Z,9
2018-04-27T05:26:15.182Z,9
2018-04-27T05:27:15.230Z,9.04
2018-04-27T05:28:15.167Z,9.06
2018-04-27T05:29:15.195Z,9.04
2018-04-27T05:30:15.178Z,9.06
2018-04-27T05:31:15.191Z,9.06
2018-04-27T05:32:15.188Z,9.09
2018-04-27T05:33:15.193Z,9.11
2018-04-27T05:34:15.177Z,9.14
2018-04-27T05:35:15.186Z,9.16
2018-04-27T05:36:15.189Z,9.2
2018-04-27T05:37:15.194Z,9.24
2018-04-27T05:38:15.200Z,9.26
2018-04-27T05:39:15.172Z,9.24
2018-04-27T05:40:15.182Z,9.27
2018-04-27T05:41:15.190Z,9.3
2018-04-27T05:42:15.190Z,9.29
2018-04-27T05:43:15.215Z,9.34
2018-04-27T05:44:15.167Z,9.4
2018-04-27T05:45:15.174Z,9.41
2018-04-27T05:46:15.183Z,9.44
2018-04-27T05:47:15.194Z,9.41
2018-04-27T05:48:15.438Z,9.44
2018-04-27T05:49:15.207Z,9.48
2018-04-27T05:50:15.171Z,9.48
2018-04-27T05:51:15.186Z,9.49
2018-04-27T05:52:15.179Z,9.55
2018-04-27T05:53:15.183Z,9.55
2018-04-27T05:54:15.220Z,9.55
2018-04-27T05:55:15.202Z,9.58
2018-04-27T05:56:15.207Z,9.61
2018-04-27T05:57:15.201Z,9.66
2018-04-27T05:58:15.204Z,9.63
2018-04-27T05:59:15.509Z,9.66
2018-04-27T06:00:15.180Z,9.7
2018-04-27T06:01:15.293Z,9.72
2018-04-27T06:02:15.195Z,9.72
2018-04-27T06:03:15.176Z,9.76
2018-04-27T06:04:15.205Z,9.78
2018-04-27T06:05:15.179Z,9.81
2018-04-27T06:06:15.190Z,9.82
2018-04-27T06:07:15.211Z,9.85
2018-04-27T06:08:15.182Z,9.89
2018-04-27T06:09:15.235Z,9.9
2018-04-27T06:10:15.183Z,9.93
2018-04-27T06:11:15.207Z,9.88
2018-04-27T06:12:15.190Z,9.9
2018-04-27T06:13:15.217Z,9.93
2018-04-27T06:14:15.193Z,9.96
2018-04-27T06:15:15.202Z,9.99
2018-04-27T06:16:15.208Z,9.99
2018-04-27T06:17:15.209Z,10.03
2018-04-27T06:18:15.217Z,10.04
2018-04-27T06:19:15.244Z,10.09
2018-04-27T06:20:15.199Z,10.09
2018-04-27T06:21:15.280Z,10.09
2018-04-27T06:22:15.288Z,10.11
2018-04-27T06:23:15.205Z,10.16
2018-04-27T06:24:15.197Z,10.21
2018-04-27T06:25:15.225Z,10.17
2018-04-27T06:26:15.371Z,10.21
2018-04-27T06:27:15.244Z,10.24
2018-04-27T06:28:15.188Z,10.2
2018-04-27T06:29:15.224Z,10.23
2018-04-27T06:30:15.183Z,10.25
2018-04-27T06:31:15.204Z,10.25
2018-04-27T06:32:15.235Z,10.27
2018-04-27T06:33:15.242Z,10.28
2018-04-27T06:34:15.223Z,10.3
2018-04-27T06:35:15.216Z,10.35
2018-04-27T06:36:15.231Z,10.39
2018-04-27T06:37:15.218Z,10.41
2018-04-27T06:38:15.210Z,10.44
2018-04-27T06:39:15.227Z,10.48
2018-04-27T06:40:15.225Z,10.53
2018-04-27T06:41:15.216Z,10.59
2018-04-27T06:42:15.218Z,10.59
2018-04-27T06:43:15.248Z,10.64
2018-04-27T06:44:15.253Z,10.66
2018-04-27T06:45:15.256Z,10.65
2018-04-27T06:46:15.374Z,10.64
2018-04-27T06:47:15.210Z,10.71
2018-04-27T06:48:15.219Z,10.71
2018-04-27T06:49:15.224Z,10.72
2018-04-27T06:50:15.212Z,10.79
2018-04-27T06:51:15.250Z,10.8
2018-04-27T06:52:15.213Z,10.79
2018-04-27T06:53:15.203Z,10.83
2018-04-27T06:54:15.227Z,10.83
2018-04-27T06:55:15.219Z,10.9
2018-04-27T06:56:15.216Z,10.96
2018-04-27T06:57:15.246Z,10.92
2018-04-27T06:58:15.229Z,10.93
2018-04-27T06:59:15.761Z,10.93
2018-04-27T07:00:15.235Z,10.97
2018-04-27T07:01:15.219Z,11
2018-04-27T07:02:15.199Z,11.04
2018-04-27T07:03:15.782Z,11.07
2018-04-27T07:04:15.212Z,11.12
2018-04-27T07:05:15.638Z,11.15
2018-04-27T07:06:15.265Z,11.12
2018-04-27T07:07:15.221Z,11.11
2018-04-27T07:08:15.223Z,11.08
2018-04-27T07:09:15.301Z,11.1
2018-04-27T07:10:15.587Z,11.12
2018-04-27T07:11:15.244Z,11.18
2018-04-27T07:12:15.219Z,11.22
2018-04-27T07:13:15.367Z,11.22
2018-04-27T07:14:15.221Z,11.25
2018-04-27T07:15:15.247Z,11.28
2018-04-27T07:16:15.219Z,11.31
2018-04-27T07:17:15.229Z,11.38
2018-04-27T07:18:15.232Z,11.39
2018-04-27T07:19:15.255Z,11.42
2018-04-27T07:20:15.261Z,11.44
2018-04-27T07:21:15.243Z,11.52
2018-04-27T07:22:15.236Z,11.56
2018-04-27T07:23:15.226Z,11.56
2018-04-27T07:24:15.279Z,11.61
2018-04-27T07:25:15.252Z,11.65
2018-04-27T07:26:15.236Z,11.72
2018-04-27T07:27:15.227Z,11.7
2018-04-27T07:28:15.253Z,11.73
2018-04-27T07:29:15.290Z,11.8
2018-04-27T07:30:15.242Z,11.83
2018-04-27T07:31:15.268Z,11.84
2018-04-27T07:32:15.239Z,11.92
2018-04-27T07:33:15.239Z,11.94
2018-04-27T07:34:15.495Z,11.94
2018-04-27T07:35:15.241Z,12
2018-04-27T07:36:15.260Z,12.03
2018-04-27T07:37:15.246Z,12.07
2018-04-27T07:38:15.243Z,12.14
2018-04-27T07:39:15.263Z,12.18
2018-04-27T07:40:15.222Z,12.27
2018-04-27T07:41:15.244Z,12.31
2018-04-27T07:42:15.249Z,12.39
2018-04-27T07:43:15.244Z,12.32
2018-04-27T07:44:15.288Z,12.34
2018-04-27T07:45:15.533Z,12.34
2018-04-27T07:46:15.235Z,12.34
2018-04-27T07:47:15.270Z,12.32
2018-04-27T07:48:15.283Z,12.44
2018-04-27T07:49:15.275Z,12.46
2018-04-27T07:50:15.235Z,12.46
2018-04-27T07:51:15.423Z,12.51
2018-04-27T07:52:15.235Z,12.57
2018-04-27T07:53:15.250Z,12.56
2018-04-27T07:54:15.416Z,12.57
2018-04-27T07:55:15.309Z,12.63
2018-04-27T07:56:15.252Z,12.65
2018-04-27T07:57:15.421Z,12.7
2018-04-27T07:58:15.235Z,12.8
2018-04-27T07:59:15.263Z,12.79
2018-04-27T08:00:15.272Z,12.83
2018-04-27T08:01:15.269Z,12.84
2018-04-27T08:02:15.600Z,12.84
2018-04-27T08:03:15.264Z,12.87
2018-04-27T08:04:15.601Z,12.94
2018-04-27T08:05:15.240Z,12.97
2018-04-27T08:06:15.234Z,13.03
2018-04-27T08:07:15.494Z,13.08
2018-04-27T08:08:15.353Z,13.1
2018-04-27T08:09:15.274Z,13.08
2018-04-27T08:10:15.238Z,13.11
2018-04-27T08:11:15.462Z,13.14
2018-04-27T08:12:15.240Z,13.17
2018-04-27T08:13:15.264Z,13.22
2018-04-27T08:14:15.283Z,13.27
2018-04-27T08:15:15.247Z,13.34
2018-04-27T08:16:15.229Z,13.35
2018-04-27T08:17:15.251Z,13.41
2018-04-27T08:18:15.277Z,13.41
2018-04-27T08:19:15.268Z,13.5
2018-04-27T08:20:15.221Z,13.52
2018-04-27T08:21:15.255Z,13.56
2018-04-27T08:22:15.255Z,13.62
2018-04-27T08:23:15.228Z,13.7
2018-04-27T08:24:15.681Z,13.72
2018-04-27T08:25:15.232Z,13.76
2018-04-27T08:26:15.241Z,13.79
2018-04-27T08:27:15.239Z,13.86
2018-04-27T08:28:15.246Z,13.93
2018-04-27T08:29:15.287Z,13.9
2018-04-27T08:30:15.529Z,13.9
2018-04-27T08:31:15.261Z,13.93
2018-04-27T08:32:15.255Z,13.97
2018-04-27T08:33:15.271Z,14.05
2018-04-27T08:34:15.417Z,14.11
2018-04-27T08:35:15.264Z,14.24
2018-04-27T08:36:15.560Z,14.22
2018-04-27T08:37:15.317Z,14.25
2018-04-27T08:38:17.729Z,14.22
2018-04-27T08:39:15.284Z,14.25
2018-04-27T08:40:15.260Z,14.32
2018-04-27T08:41:15.242Z,14.4
2018-04-27T08:42:15.264Z,14.52
2018-04-27T08:43:15.247Z,14.56
2018-04-27T08:44:15.300Z,14.58
2018-04-27T08:45:15.264Z,14.59
2018-04-27T08:46:15.259Z,14.64
2018-04-27T08:47:15.268Z,14.67
2018-04-27T08:48:15.270Z,14.69
2018-04-27T08:49:15.282Z,14.72
2018-04-27T08:50:15.247Z,14.7
2018-04-27T08:51:15.242Z,14.76
2018-04-27T08:52:15.258Z,14.77
2018-04-27T08:53:15.266Z,14.77
2018-04-27T08:54:15.596Z,14.73
2018-04-27T08:55:15.273Z,14.73
2018-04-27T08:56:15.267Z,14.83
2018-04-27T08:57:15.248Z,14.87
2018-04-27T08:58:15.282Z,14.88
2018-04-27T08:59:15.308Z,14.98
2018-04-27T09:00:15.683Z,15
2018-04-27T09:01:15.285Z,15.08
2018-04-27T09:02:15.265Z,15.18
2018-04-27T09:03:15.299Z,15.28
2018-04-27T09:04:15.262Z,15.25
2018-04-27T09:05:15.263Z,15.32
2018-04-27T09:06:15.573Z,15.31
2018-04-27T09:07:15.280Z,15.31
2018-04-27T09:08:15.376Z,15.32
2018-04-27T09:09:15.267Z,15.36
2018-04-27T09:10:15.259Z,15.45
2018-04-27T09:11:15.258Z,15.45
2018-04-27T09:12:15.267Z,15.49
2018-04-27T09:13:15.266Z,15.64
2018-04-27T09:14:15.318Z,15.63
2018-04-27T09:15:15.436Z,15.63
2018-04-27T09:16:15.508Z,15.59
2018-04-27T09:17:15.270Z,15.64
2018-04-27T09:18:15.277Z,15.69
2018-04-27T09:19:15.290Z,15.71
2018-04-27T09:20:15.276Z,15.7
2018-04-27T09:21:15.261Z,15.71
2018-04-27T09:22:15.309Z,15.74
2018-04-27T09:23:15.282Z,15.8
2018-04-27T09:24:15.299Z,15.78
2018-04-27T09:25:15.285Z,15.74
2018-04-27T09:26:15.318Z,15.78
2018-04-27T09:27:15.304Z,15.82
2018-04-27T09:28:15.288Z,15.94
2018-04-27T09:29:15.289Z,15.99
2018-04-27T09:30:15.291Z,16.05
2018-04-27T09:31:15.299Z,16.11
2018-04-27T09:32:15.512Z,16.11
2018-04-27T09:33:15.280Z,16.12
2018-04-27T09:34:15.291Z,16.18
2018-04-27T09:35:15.292Z,16.24
2018-04-27T09:36:15.293Z,16.31
2018-04-27T09:37:15.276Z,16.33
2018-04-27T09:38:15.270Z,16.37
2018-04-27T09:39:15.300Z,16.37
2018-04-27T09:40:15.355Z,16.45
2018-04-27T09:41:15.282Z,16.36
2018-04-27T09:42:15.278Z,16.4
2018-04-27T09:43:15.278Z,16.43
2018-04-27T09:44:15.304Z,16.43
2018-04-27T09:45:15.301Z,16.43
2018-04-27T09:46:15.360Z,16.5
2018-04-27T09:47:15.322Z,16.53
2018-04-27T09:48:15.287Z,16.52
2018-04-27T09:49:15.293Z,16.52
2018-04-27T09:50:15.672Z,16.59
2018-04-27T09:51:15.265Z,16.59
2018-04-27T09:52:15.270Z,16.63
2018-04-27T09:53:15.326Z,16.7
2018-04-27T09:54:15.310Z,16.73
2018-04-27T09:55:15.330Z,16.77
2018-04-27T09:56:15.317Z,16.78
2018-04-27T09:57:15.305Z,16.87
2018-04-27T09:58:15.313Z,16.91
2018-04-27T09:59:15.314Z,16.95
2018-04-27T10:00:15.338Z,16.92
2018-04-27T10:01:15.297Z,16.92
2018-04-27T10:02:15.366Z,16.94
2018-04-27T10:03:15.327Z,16.99
2018-04-27T10:04:15.292Z,17.04
2018-04-27T10:05:15.327Z,17.09
2018-04-27T10:06:16.052Z,17.16
2018-04-27T10:07:15.289Z,17.18
2018-04-27T10:08:16.247Z,17.19
2018-04-27T10:09:15.282Z,17.23
2018-04-27T10:10:15.336Z,17.26
2018-04-27T10:11:16.456Z,17.29
2018-04-27T10:12:15.296Z,17.35
2018-04-27T10:13:15.295Z,17.35
2018-04-27T10:14:15.312Z,17.36
2018-04-27T10:15:15.366Z,17.37
2018-04-27T10:16:15.376Z,17.39
2018-04-27T10:17:15.298Z,17.49
2018-04-27T10:18:15.290Z,17.5
2018-04-27T10:19:15.313Z,17.53
2018-04-27T10:20:15.406Z,17.52
2018-04-27T10:21:15.314Z,17.47
2018-04-27T10:22:15.329Z,17.53
2018-04-27T10:23:15.314Z,17.54
2018-04-27T10:24:15.317Z,17.6
2018-04-27T10:25:15.319Z,17.63
2018-04-27T10:26:15.328Z,17.61
2018-04-27T10:27:15.310Z,17.66
2018-04-27T10:28:15.301Z,17.7
2018-04-27T10:29:15.299Z,17.73
2018-04-27T10:30:15.342Z,17.77
2018-04-27T10:31:15.303Z,17.81
2018-04-27T10:32:15.321Z,17.85
2018-04-27T10:42:25.773Z,18.01
2018-04-27T10:43:25.779Z,18.08
2018-04-27T10:44:25.810Z,18.12
2018-04-27T10:45:25.779Z,18.13
2018-04-27T10:46:25.779Z,18.13
2018-04-27T10:47:25.819Z,18.11
2018-04-27T10:48:25.800Z,18.15
2018-04-27T10:49:25.773Z,18.15
2018-04-27T10:50:25.855Z,18.2
2018-04-27T10:51:25.784Z,18.23
2018-04-27T10:52:25.801Z,18.19
2018-04-27T10:53:25.849Z,18.11
2018-04-27T10:54:25.809Z,18.12
2018-04-27T10:55:25.836Z,18.16
2018-04-27T10:56:25.815Z,18.19
2018-04-27T10:57:25.815Z,18.22
2018-04-27T10:58:25.827Z,18.2
2018-04-27T10:59:25.897Z,18.2
2018-04-27T11:00:25.982Z,18.22
2018-04-27T11:01:26.149Z,18.27
2018-04-27T11:02:25.856Z,18.33
2018-04-27T11:03:26.124Z,18.35
2018-04-27T11:04:25.818Z,18.36
2018-04-27T11:05:25.876Z,18.4
2018-04-27T11:06:25.832Z,18.46
2018-04-27T11:07:25.781Z,18.42
2018-04-27T11:08:25.857Z,18.4
2018-04-27T11:09:25.804Z,18.43
2018-04-27T11:10:26.075Z,18.42
2018-04-27T11:11:25.848Z,18.4
2018-04-27T11:12:25.835Z,18.43
2018-04-27T11:13:25.789Z,18.44
2018-04-27T11:14:25.817Z,18.47
2018-04-27T11:15:26.103Z,18.52
2018-04-27T11:16:25.794Z,18.52
2018-04-27T11:17:25.806Z,18.56
2018-04-27T11:18:25.796Z,18.6
2018-04-27T11:19:25.803Z,18.7
2018-04-27T11:20:25.838Z,18.72
2018-04-27T11:21:25.863Z,18.77
2018-04-27T11:22:26.205Z,18.77
2018-04-27T11:23:25.798Z,18.75
2018-04-27T11:24:25.824Z,18.78
2018-04-27T11:25:25.789Z,18.87
2018-04-27T11:26:25.829Z,18.89
2018-04-27T11:27:25.855Z,18.92
2018-04-27T11:28:25.822Z,18.98
2018-04-27T11:29:25.813Z,19.03
2018-04-27T11:30:25.842Z,19.13
2018-04-27T11:31:25.899Z,19.21
2018-04-27T11:32:25.898Z,19.29
2018-04-27T11:33:25.854Z,19.37
2018-04-27T11:34:25.807Z,19.39
2018-04-27T11:35:25.813Z,19.4
2018-04-27T11:36:25.807Z,19.4
2018-04-27T11:37:25.868Z,19.36
2018-04-27T11:38:25.846Z,19.37
2018-04-27T11:39:25.921Z,19.46
2018-04-27T11:40:25.891Z,19.44
2018-04-27T11:41:25.903Z,19.46
2018-04-27T11:42:25.865Z,19.49
2018-04-27T11:43:25.836Z,19.57
2018-04-27T11:44:25.840Z,19.61
2018-04-27T11:45:25.818Z,19.61
2018-04-27T11:46:25.812Z,19.61
2018-04-27T11:47:25.819Z,19.62
2018-04-27T11:48:25.811Z,19.7
2018-04-27T11:49:25.892Z,19.74
2018-04-27T11:50:25.820Z,19.74
2018-04-27T11:51:25.821Z,19.77
2018-04-27T11:52:25.834Z,19.72
2018-04-27T11:53:25.836Z,19.74
2018-04-27T11:54:25.888Z,19.68
2018-04-27T11:55:25.836Z,19.78
2018-04-27T11:56:25.873Z,19.82
2018-04-27T11:57:25.871Z,19.88
2018-04-27T11:58:25.821Z,19.89
2018-04-27T11:59:25.841Z,19.89
2018-04-27T12:00:25.846Z,19.98
2018-04-27T12:01:25.855Z,20.02
2018-04-27T12:02:26.113Z,20.11
2018-04-27T12:03:25.828Z,20.16
2018-04-27T12:04:25.988Z,20.26
2018-04-27T12:05:25.885Z,20.27
2018-04-27T12:06:25.827Z,20.34
2018-04-27T12:07:26.138Z,20.43
2018-04-27T12:09:25.839Z,20.47
2018-04-27T12:10:25.819Z,20.46
2018-04-27T12:11:25.888Z,20.46
2018-04-27T12:12:25.870Z,20.48
2018-04-27T12:13:25.831Z,20.52
2018-04-27T12:14:25.912Z,20.51
2018-04-27T12:15:25.841Z,20.61
2018-04-27T12:16:26.004Z,20.61
2018-04-27T12:17:25.904Z,20.61
2018-04-27T12:18:25.979Z,20.6
2018-04-27T12:19:25.880Z,20.61
2018-04-27T12:20:25.881Z,20.67
2018-04-27T12:21:25.835Z,20.74
2018-04-27T12:22:25.944Z,20.77
2018-04-27T12:23:25.887Z,20.75
2018-04-27T12:24:26.337Z,20.79
2018-04-27T12:25:25.903Z,20.77
2018-04-27T12:26:25.880Z,20.81
2018-04-27T12:27:26.109Z,20.88
2018-04-27T12:28:25.967Z,20.91
2018-04-27T12:29:25.965Z,20.89
2018-04-27T12:30:25.906Z,20.91
2018-04-27T12:31:26.279Z,20.92
2018-04-27T12:32:25.899Z,20.91
2018-04-27T12:33:25.887Z,20.92
2018-04-27T12:34:25.910Z,20.98
2018-04-27T12:35:25.955Z,20.95
2018-04-27T12:36:25.866Z,20.94
2018-04-27T12:37:26.033Z,20.84
2018-04-27T12:38:25.843Z,20.78
2018-04-27T12:39:25.910Z,20.85
2018-04-27T12:40:25.923Z,20.87
2018-04-27T12:41:25.919Z,20.92
2018-04-27T12:42:25.853Z,21.02
2018-04-27T12:43:25.961Z,20.96
2018-04-27T12:44:25.899Z,20.95
2018-04-27T12:45:25.893Z,21.02
2018-04-27T12:46:25.978Z,21.06
2018-04-27T12:47:25.869Z,21.07
2018-04-27T12:48:26.176Z,21.15
2018-04-27T12:49:25.995Z,21.17
2018-04-27T12:50:25.883Z,21.17
2018-04-27T12:51:25.859Z,21.23
2018-04-27T12:52:25.852Z,21.26
2018-04-27T12:53:25.900Z,21.33
2018-04-27T12:54:25.868Z,21.32
2018-04-27T12:55:25.879Z,21.36
2018-04-27T12:56:26.064Z,21.36
2018-04-27T12:57:26.107Z,21.41
2018-04-27T12:58:25.869Z,21.44
2018-04-27T12:59:25.893Z,21.53
2018-04-27T13:00:25.870Z,21.6
2018-04-27T13:01:25.886Z,21.68
2018-04-27T13:02:25.876Z,21.71
2018-04-27T13:03:25.929Z,21.78
2018-04-27T13:04:25.897Z,21.79
2018-04-27T13:05:25.870Z,21.85
2018-04-27T13:06:25.885Z,21.75
2018-04-27T13:07:25.882Z,21.69
2018-04-27T13:08:25.887Z,21.68
2018-04-27T13:09:25.856Z,21.69
2018-04-27T13:10:25.854Z,21.74
2018-04-27T13:11:25.965Z,21.72
2018-04-27T13:12:25.951Z,21.41
2018-04-27T13:13:25.926Z,21.36
2018-04-27T13:14:25.942Z,21.46